sensor_id;sensor_type;location;lat;lon;timestamp;P1;durP1;ratioP1;P2;durP2;ratioP2
71715;SDS011;59568;52.128;5.434;2024-03-23T00:51:18;21.70;;;5.95;;
71715;SDS011;59568;52.128;5.434;2024-03-23T00:53:45;18.15;;;5.75;;
71715;SDS011;59568;52.128;5.434;2024-03-23T00:56:10;23.47;;;5.97;;
71715;SDS011;59568;52.128;5.434;2024-03-23T00:58:38;17.77;;;5.63;;
71715;SDS011;59568;52.128;5.434;2024-03-23T01:01:04;16.40;;;5.32;;
71715;SDS011;59568;52.128;5.434;2024-03-23T01:03:30;15.93;;;5.63;;
71715;SDS011;59568;52.128;5.434;2024-03-23T01:06:00;11.02;;;5.55;;
71715;SDS011;59568;52.128;5.434;2024-03-23T01:08:26;13.20;;;5.70;;
71715;SDS011;59568;52.128;5.434;2024-03-23T01:10:59;12.87;;;5.93;;
71715;SDS011;59568;52.128;5.434;2024-03-23T01:13:26;20.70;;;5.75;;
71715;SDS011;59568;52.128;5.434;2024-03-23T01:15:52;13.68;;;4.28;;
71715;SDS011;59568;52.128;5.434;2024-03-23T01:18:19;21.55;;;5.50;;
71715;SDS011;59568;52.128;5.434;2024-03-23T01:20:46;17.70;;;5.85;;
71715;SDS011;59568;52.128;5.434;2024-03-23T01:23:12;23.37;;;5.90;;
71715;SDS011;59568;52.128;5.434;2024-03-23T01:25:38;17.25;;;5.45;;
71715;SDS011;59568;52.128;5.434;2024-03-23T01:28:04;19.10;;;5.53;;
71715;SDS011;59568;52.128;5.434;2024-03-23T01:30:31;20.90;;;6.10;;
71715;SDS011;59568;52.128;5.434;2024-03-23T01:32:57;16.20;;;5.57;;
71715;SDS011;59568;52.128;5.434;2024-03-23T01:35:23;15.37;;;5.10;;
71715;SDS011;59568;52.128;5.434;2024-03-23T01:37:49;12.32;;;5.18;;
71715;SDS011;59568;52.128;5.434;2024-03-23T01:40:16;19.73;;;6.53;;
71715;SDS011;59568;52.128;5.434;2024-03-23T01:42:41;16.73;;;5.45;;
71715;SDS011;59568;52.128;5.434;2024-03-23T01:45:07;15.80;;;5.57;;
71715;SDS011;59568;52.128;5.434;2024-03-23T01:47:37;14.77;;;5.37;;
71715;SDS011;59568;52.128;5.434;2024-03-23T01:50:03;17.83;;;4.93;;
71715;SDS011;59568;52.128;5.434;2024-03-23T01:52:30;24.17;;;5.82;;
71715;SDS011;59568;52.128;5.434;2024-03-23T01:54:55;18.07;;;5.33;;
71715;SDS011;59568;52.128;5.434;2024-03-23T01:57:21;17.17;;;5.68;;
71715;SDS011;59568;52.128;5.434;2024-03-23T01:59:47;14.00;;;4.77;;
71715;SDS011;59568;52.128;5.434;2024-03-23T02:02:13;16.90;;;5.15;;
71715;SDS011;59568;52.128;5.434;2024-03-23T02:04:39;15.52;;;5.78;;
71715;SDS011;59568;52.128;5.434;2024-03-23T02:07:08;16.83;;;5.27;;
71715;SDS011;59568;52.128;5.434;2024-03-23T02:09:34;17.98;;;5.85;;
71715;SDS011;59568;52.128;5.434;2024-03-23T02:12:01;15.88;;;4.95;;
71715;SDS011;59568;52.128;5.434;2024-03-23T02:14:27;16.88;;;5.63;;
71715;SDS011;59568;52.128;5.434;2024-03-23T02:16:53;17.50;;;5.85;;
71715;SDS011;59568;52.128;5.434;2024-03-23T02:19:18;15.23;;;6.03;;
71715;SDS011;59568;52.128;5.434;2024-03-23T02:21:44;15.70;;;5.20;;
71715;SDS011;59568;52.128;5.434;2024-03-23T02:24:09;12.43;;;4.68;;
71715;SDS011;59568;52.128;5.434;2024-03-23T02:26:35;16.37;;;5.50;;
71715;SDS011;59568;52.128;5.434;2024-03-23T02:29:02;14.20;;;5.38;;
71715;SDS011;59568;52.128;5.434;2024-03-23T02:31:28;10.83;;;4.57;;
71715;SDS011;59568;52.128;5.434;2024-03-23T02:33:53;13.02;;;4.90;;
71715;SDS011;59568;52.128;5.434;2024-03-23T02:36:19;14.37;;;5.50;;
71715;SDS011;59568;52.128;5.434;2024-03-23T02:38:46;11.50;;;5.03;;
71715;SDS011;59568;52.128;5.434;2024-03-23T02:41:12;20.08;;;6.03;;
71715;SDS011;59568;52.128;5.434;2024-03-23T02:43:38;17.95;;;5.20;;
71715;SDS011;59568;52.128;5.434;2024-03-23T02:46:03;15.35;;;5.15;;
71715;SDS011;59568;52.128;5.434;2024-03-23T02:48:29;13.13;;;4.97;;
71715;SDS011;59568;52.128;5.434;2024-03-23T02:50:55;15.18;;;4.82;;
71715;SDS011;59568;52.128;5.434;2024-03-23T02:53:21;15.40;;;4.70;;
71715;SDS011;59568;52.128;5.434;2024-03-23T02:55:47;15.10;;;5.00;;
71715;SDS011;59568;52.128;5.434;2024-03-23T02:58:12;15.20;;;5.07;;
71715;SDS011;59568;52.128;5.434;2024-03-23T03:00:38;12.35;;;4.40;;
71715;SDS011;59568;52.128;5.434;2024-03-23T03:03:04;12.80;;;4.53;;
71715;SDS011;59568;52.128;5.434;2024-03-23T03:05:30;13.88;;;4.13;;
71715;SDS011;59568;52.128;5.434;2024-03-23T03:07:56;13.00;;;4.63;;
71715;SDS011;59568;52.128;5.434;2024-03-23T03:10:22;17.53;;;4.67;;
71715;SDS011;59568;52.128;5.434;2024-03-23T03:12:48;13.25;;;4.30;;
71715;SDS011;59568;52.128;5.434;2024-03-23T03:15:13;14.70;;;3.87;;
71715;SDS011;59568;52.128;5.434;2024-03-23T03:17:39;11.17;;;3.83;;
71715;SDS011;59568;52.128;5.434;2024-03-23T03:20:04;12.88;;;4.38;;
71715;SDS011;59568;52.128;5.434;2024-03-23T03:22:31;15.27;;;4.35;;
71715;SDS011;59568;52.128;5.434;2024-03-23T03:24:57;8.37;;;3.97;;
71715;SDS011;59568;52.128;5.434;2024-03-23T03:27:22;17.58;;;4.78;;
71715;SDS011;59568;52.128;5.434;2024-03-23T03:29:48;8.60;;;3.80;;
71715;SDS011;59568;52.128;5.434;2024-03-23T03:32:14;14.95;;;3.67;;
71715;SDS011;59568;52.128;5.434;2024-03-23T03:34:39;13.70;;;3.67;;
71715;SDS011;59568;52.128;5.434;2024-03-23T03:37:05;8.13;;;3.20;;
71715;SDS011;59568;52.128;5.434;2024-03-23T03:39:31;8.25;;;3.33;;
71715;SDS011;59568;52.128;5.434;2024-03-23T03:41:56;9.43;;;3.87;;
71715;SDS011;59568;52.128;5.434;2024-03-23T03:44:22;12.27;;;3.93;;
71715;SDS011;59568;52.128;5.434;2024-03-23T03:46:47;10.98;;;3.28;;
71715;SDS011;59568;52.128;5.434;2024-03-23T03:49:13;10.73;;;4.10;;
71715;SDS011;59568;52.128;5.434;2024-03-23T03:51:39;10.70;;;3.80;;
71715;SDS011;59568;52.128;5.434;2024-03-23T03:54:04;6.43;;;3.33;;
71715;SDS011;59568;52.128;5.434;2024-03-23T03:56:30;8.93;;;4.10;;
71715;SDS011;59568;52.128;5.434;2024-03-23T03:58:56;10.55;;;4.18;;
71715;SDS011;59568;52.128;5.434;2024-03-23T04:01:21;14.80;;;4.17;;
71715;SDS011;59568;52.128;5.434;2024-03-23T04:03:47;11.88;;;4.05;;
71715;SDS011;59568;52.128;5.434;2024-03-23T04:06:18;12.33;;;4.57;;
71715;SDS011;59568;52.128;5.434;2024-03-23T04:08:44;11.98;;;3.90;;
71715;SDS011;59568;52.128;5.434;2024-03-23T04:11:09;10.20;;;3.63;;
71715;SDS011;59568;52.128;5.434;2024-03-23T04:13:35;12.68;;;3.90;;
71715;SDS011;59568;52.128;5.434;2024-03-23T04:16:01;10.77;;;4.23;;
71715;SDS011;59568;52.128;5.434;2024-03-23T04:18:27;12.05;;;4.18;;
71715;SDS011;59568;52.128;5.434;2024-03-23T04:20:53;11.80;;;3.67;;
71715;SDS011;59568;52.128;5.434;2024-03-23T04:23:18;15.38;;;3.83;;
71715;SDS011;59568;52.128;5.434;2024-03-23T04:25:44;13.03;;;3.77;;
71715;SDS011;59568;52.128;5.434;2024-03-23T04:28:09;14.23;;;4.73;;
71715;SDS011;59568;52.128;5.434;2024-03-23T04:30:35;10.57;;;3.78;;
71715;SDS011;59568;52.128;5.434;2024-03-23T04:33:02;12.25;;;3.80;;
71715;SDS011;59568;52.128;5.434;2024-03-23T04:35:28;8.10;;;4.13;;
71715;SDS011;59568;52.128;5.434;2024-03-23T04:37:54;7.93;;;3.70;;
71715;SDS011;59568;52.128;5.434;2024-03-23T04:40:21;9.35;;;2.90;;
71715;SDS011;59568;52.128;5.434;2024-03-23T04:42:48;8.73;;;3.50;;
71715;SDS011;59568;52.128;5.434;2024-03-23T04:45:13;9.63;;;3.75;;
71715;SDS011;59568;52.128;5.434;2024-03-23T04:47:39;10.07;;;3.80;;
71715;SDS011;59568;52.128;5.434;2024-03-23T04:50:05;10.65;;;3.72;;
71715;SDS011;59568;52.128;5.434;2024-03-23T04:52:30;9.13;;;3.60;;
71715;SDS011;59568;52.128;5.434;2024-03-23T04:54:56;14.87;;;3.60;;
71715;SDS011;59568;52.128;5.434;2024-03-23T04:57:22;8.75;;;2.50;;
71715;SDS011;59568;52.128;5.434;2024-03-23T04:59:47;13.60;;;3.45;;
71715;SDS011;59568;52.128;5.434;2024-03-23T05:02:13;9.77;;;3.08;;
71715;SDS011;59568;52.128;5.434;2024-03-23T05:04:40;9.02;;;3.05;;
71715;SDS011;59568;52.128;5.434;2024-03-23T05:07:06;11.68;;;2.58;;
71715;SDS011;59568;52.128;5.434;2024-03-23T05:09:32;8.93;;;2.30;;
71715;SDS011;59568;52.128;5.434;2024-03-23T05:12:01;4.20;;;2.20;;
71715;SDS011;59568;52.128;5.434;2024-03-23T05:14:27;4.63;;;2.20;;
71715;SDS011;59568;52.128;5.434;2024-03-23T05:16:53;4.95;;;2.35;;
71715;SDS011;59568;52.128;5.434;2024-03-23T05:19:19;12.32;;;2.13;;
71715;SDS011;59568;52.128;5.434;2024-03-23T05:21:45;7.10;;;2.28;;
71715;SDS011;59568;52.128;5.434;2024-03-23T05:24:11;7.10;;;1.83;;
71715;SDS011;59568;52.128;5.434;2024-03-23T05:26:37;9.82;;;2.50;;
71715;SDS011;59568;52.128;5.434;2024-03-23T05:29:03;6.72;;;1.65;;
71715;SDS011;59568;52.128;5.434;2024-03-23T05:31:29;8.05;;;1.80;;
71715;SDS011;59568;52.128;5.434;2024-03-23T05:33:56;7.28;;;2.00;;
71715;SDS011;59568;52.128;5.434;2024-03-23T05:36:22;5.43;;;1.45;;
71715;SDS011;59568;52.128;5.434;2024-03-23T05:38:49;8.50;;;2.28;;
71715;SDS011;59568;52.128;5.434;2024-03-23T05:41:15;4.87;;;1.63;;
71715;SDS011;59568;52.128;5.434;2024-03-23T05:43:41;10.35;;;2.67;;
71715;SDS011;59568;52.128;5.434;2024-03-23T05:46:06;5.03;;;1.33;;
71715;SDS011;59568;52.128;5.434;2024-03-23T05:48:33;4.60;;;1.33;;
71715;SDS011;59568;52.128;5.434;2024-03-23T05:50:59;10.23;;;1.92;;
71715;SDS011;59568;52.128;5.434;2024-03-23T05:53:24;5.00;;;1.73;;
71715;SDS011;59568;52.128;5.434;2024-03-23T05:55:50;15.37;;;1.83;;
71715;SDS011;59568;52.128;5.434;2024-03-23T05:58:18;7.40;;;1.75;;
71715;SDS011;59568;52.128;5.434;2024-03-23T06:00:45;3.53;;;1.13;;
71715;SDS011;59568;52.128;5.434;2024-03-23T06:03:11;8.15;;;1.00;;
71715;SDS011;59568;52.128;5.434;2024-03-23T06:05:37;4.50;;;1.40;;
71715;SDS011;59568;52.128;5.434;2024-03-23T06:08:03;8.55;;;1.52;;
71715;SDS011;59568;52.128;5.434;2024-03-23T06:10:29;6.40;;;1.33;;
71715;SDS011;59568;52.128;5.434;2024-03-23T06:12:54;4.77;;;1.07;;
71715;SDS011;59568;52.128;5.434;2024-03-23T06:15:20;3.95;;;1.17;;
71715;SDS011;59568;52.128;5.434;2024-03-23T06:17:47;3.97;;;0.93;;
71715;SDS011;59568;52.128;5.434;2024-03-23T06:20:13;6.60;;;1.50;;
71715;SDS011;59568;52.128;5.434;2024-03-23T06:22:39;6.70;;;1.05;;
71715;SDS011;59568;52.128;5.434;2024-03-23T06:25:06;9.82;;;1.20;;
71715;SDS011;59568;52.128;5.434;2024-03-23T06:27:32;5.00;;;1.43;;
71715;SDS011;59568;52.128;5.434;2024-03-23T06:29:58;5.95;;;1.83;;
71715;SDS011;59568;52.128;5.434;2024-03-23T06:32:25;8.15;;;1.15;;
71715;SDS011;59568;52.128;5.434;2024-03-23T06:34:53;5.80;;;0.93;;
71715;SDS011;59568;52.128;5.434;2024-03-23T06:37:18;8.48;;;1.02;;
71715;SDS011;59568;52.128;5.434;2024-03-23T06:39:45;6.50;;;1.10;;
71715;SDS011;59568;52.128;5.434;2024-03-23T06:42:11;8.80;;;1.27;;
71715;SDS011;59568;52.128;5.434;2024-03-23T06:44:37;10.30;;;1.25;;
71715;SDS011;59568;52.128;5.434;2024-03-23T06:47:02;7.70;;;1.33;;
71715;SDS011;59568;52.128;5.434;2024-03-23T06:49:28;4.78;;;0.90;;
71715;SDS011;59568;52.128;5.434;2024-03-23T06:51:54;7.33;;;1.23;;
71715;SDS011;59568;52.128;5.434;2024-03-23T06:54:19;11.40;;;1.30;;
71715;SDS011;59568;52.128;5.434;2024-03-23T06:56:45;3.15;;;0.75;;
71715;SDS011;59568;52.128;5.434;2024-03-23T06:59:13;7.20;;;0.95;;
71715;SDS011;59568;52.128;5.434;2024-03-23T07:01:38;7.80;;;1.67;;
71715;SDS011;59568;52.128;5.434;2024-03-23T07:04:04;3.37;;;1.00;;
71715;SDS011;59568;52.128;5.434;2024-03-23T07:06:30;5.13;;;0.75;;
71715;SDS011;59568;52.128;5.434;2024-03-23T07:08:56;4.95;;;1.08;;
71715;SDS011;59568;52.128;5.434;2024-03-23T07:11:22;5.63;;;0.93;;
71715;SDS011;59568;52.128;5.434;2024-03-23T07:13:50;8.27;;;1.38;;
71715;SDS011;59568;52.128;5.434;2024-03-23T07:16:17;5.93;;;1.88;;
71715;SDS011;59568;52.128;5.434;2024-03-23T07:18:45;4.60;;;0.77;;
71715;SDS011;59568;52.128;5.434;2024-03-23T07:21:11;6.95;;;1.50;;
71715;SDS011;59568;52.128;5.434;2024-03-23T07:23:37;6.77;;;1.30;;
71715;SDS011;59568;52.128;5.434;2024-03-23T07:26:04;6.07;;;1.52;;
71715;SDS011;59568;52.128;5.434;2024-03-23T07:28:30;7.82;;;1.67;;
71715;SDS011;59568;52.128;5.434;2024-03-23T07:31:04;10.30;;;1.27;;
71715;SDS011;59568;52.128;5.434;2024-03-23T07:33:31;8.70;;;1.80;;
71715;SDS011;59568;52.128;5.434;2024-03-23T07:35:57;7.45;;;1.23;;
71715;SDS011;59568;52.128;5.434;2024-03-23T07:38:26;8.65;;;1.38;;
71715;SDS011;59568;52.128;5.434;2024-03-23T07:40:52;9.15;;;1.88;;
71715;SDS011;59568;52.128;5.434;2024-03-23T07:43:21;7.97;;;1.30;;
71715;SDS011;59568;52.128;5.434;2024-03-23T07:45:53;4.25;;;1.23;;
71715;SDS011;59568;52.128;5.434;2024-03-23T07:48:20;7.60;;;1.52;;
71715;SDS011;59568;52.128;5.434;2024-03-23T07:51:00;5.45;;;0.88;;
71715;SDS011;59568;52.128;5.434;2024-03-23T07:53:30;7.03;;;1.30;;
71715;SDS011;59568;52.128;5.434;2024-03-23T07:55:57;2.60;;;0.73;;
71715;SDS011;59568;52.128;5.434;2024-03-23T07:58:25;6.93;;;0.98;;
71715;SDS011;59568;52.128;5.434;2024-03-23T08:00:53;4.80;;;0.77;;
71715;SDS011;59568;52.128;5.434;2024-03-23T08:03:19;9.90;;;1.13;;
71715;SDS011;59568;52.128;5.434;2024-03-23T08:05:45;6.23;;;1.37;;
71715;SDS011;59568;52.128;5.434;2024-03-23T08:08:11;6.68;;;0.80;;
71715;SDS011;59568;52.128;5.434;2024-03-23T08:10:48;6.22;;;0.85;;
71715;SDS011;59568;52.128;5.434;2024-03-23T08:13:14;6.32;;;0.98;;
71715;SDS011;59568;52.128;5.434;2024-03-23T08:15:40;6.57;;;0.87;;
71715;SDS011;59568;52.128;5.434;2024-03-23T08:18:07;9.15;;;1.17;;
71715;SDS011;59568;52.128;5.434;2024-03-23T08:20:33;5.03;;;0.70;;
71715;SDS011;59568;52.128;5.434;2024-03-23T08:22:59;4.87;;;0.80;;
71715;SDS011;59568;52.128;5.434;2024-03-23T08:25:25;5.03;;;0.88;;
71715;SDS011;59568;52.128;5.434;2024-03-23T08:27:51;9.15;;;1.67;;
71715;SDS011;59568;52.128;5.434;2024-03-23T08:30:17;5.32;;;0.82;;
71715;SDS011;59568;52.128;5.434;2024-03-23T08:32:43;8.18;;;1.00;;
71715;SDS011;59568;52.128;5.434;2024-03-23T08:35:10;5.60;;;1.07;;
71715;SDS011;59568;52.128;5.434;2024-03-23T09:07:53;5.30;;;1.10;;
71715;SDS011;59568;52.128;5.434;2024-03-23T09:10:19;4.47;;;0.40;;
71715;SDS011;59568;52.128;5.434;2024-03-23T09:12:44;9.70;;;0.80;;
71715;SDS011;59568;52.128;5.434;2024-03-23T09:15:10;4.50;;;0.70;;
71715;SDS011;59568;52.128;5.434;2024-03-23T09:17:35;6.95;;;0.88;;
71715;SDS011;59568;52.128;5.434;2024-03-23T09:20:01;5.90;;;0.97;;
71715;SDS011;59568;52.128;5.434;2024-03-23T09:22:27;4.47;;;0.63;;
71715;SDS011;59568;52.128;5.434;2024-03-23T09:24:53;2.80;;;0.50;;
71715;SDS011;59568;52.128;5.434;2024-03-23T09:27:20;4.68;;;0.52;;
71715;SDS011;59568;52.128;5.434;2024-03-23T09:29:46;6.63;;;1.03;;
71715;SDS011;59568;52.128;5.434;2024-03-23T09:32:11;6.65;;;0.57;;
71715;SDS011;59568;52.128;5.434;2024-03-23T09:34:37;2.77;;;0.50;;
71715;SDS011;59568;52.128;5.434;2024-03-23T09:37:02;3.10;;;0.65;;
71715;SDS011;59568;52.128;5.434;2024-03-23T09:39:28;7.60;;;0.80;;
71715;SDS011;59568;52.128;5.434;2024-03-23T09:49:37;2.88;;;0.30;;
71715;SDS011;59568;52.128;5.434;2024-03-23T09:52:03;3.72;;;0.40;;
71715;SDS011;59568;52.128;5.434;2024-03-23T09:54:29;3.03;;;1.37;;
71715;SDS011;59568;52.128;5.434;2024-03-23T09:56:56;4.18;;;0.70;;
71715;SDS011;59568;52.128;5.434;2024-03-23T09:59:26;5.20;;;0.88;;
71715;SDS011;59568;52.128;5.434;2024-03-23T10:01:54;4.60;;;0.87;;
71715;SDS011;59568;52.128;5.434;2024-03-23T10:07:11;9.43;;;1.10;;
71715;SDS011;59568;52.128;5.434;2024-03-23T10:10:09;3.75;;;0.85;;
71715;SDS011;59568;52.128;5.434;2024-03-23T10:12:40;5.30;;;0.80;;
71715;SDS011;59568;52.128;5.434;2024-03-23T10:15:22;6.85;;;1.05;;
71715;SDS011;59568;52.128;5.434;2024-03-23T10:17:51;8.88;;;1.10;;
71715;SDS011;59568;52.128;5.434;2024-03-23T10:20:18;8.73;;;0.80;;
71715;SDS011;59568;52.128;5.434;2024-03-23T10:22:46;6.25;;;0.60;;
71715;SDS011;59568;52.128;5.434;2024-03-23T10:25:11;4.27;;;1.17;;
71715;SDS011;59568;52.128;5.434;2024-03-23T10:27:39;5.32;;;0.50;;
71715;SDS011;59568;52.128;5.434;2024-03-23T10:30:08;3.50;;;1.20;;
71715;SDS011;59568;52.128;5.434;2024-03-23T10:32:38;4.43;;;0.65;;
71715;SDS011;59568;52.128;5.434;2024-03-23T10:35:25;5.43;;;0.80;;
71715;SDS011;59568;52.128;5.434;2024-03-23T10:37:50;6.07;;;0.95;;
71715;SDS011;59568;52.128;5.434;2024-03-23T10:40:17;4.35;;;0.75;;
71715;SDS011;59568;52.128;5.434;2024-03-23T10:42:46;5.50;;;0.90;;
71715;SDS011;59568;52.128;5.434;2024-03-23T10:45:12;5.45;;;0.65;;
71715;SDS011;59568;52.128;5.434;2024-03-23T10:47:38;6.47;;;0.53;;
71715;SDS011;59568;52.128;5.434;2024-03-23T10:50:04;6.75;;;1.40;;
71715;SDS011;59568;52.128;5.434;2024-03-23T10:52:33;6.60;;;0.80;;
71715;SDS011;59568;52.128;5.434;2024-03-23T10:54:59;3.58;;;0.65;;
71715;SDS011;59568;52.128;5.434;2024-03-23T10:57:30;4.05;;;0.47;;
71715;SDS011;59568;52.128;5.434;2024-03-23T11:00:01;5.70;;;1.05;;
71715;SDS011;59568;52.128;5.434;2024-03-23T11:02:28;3.03;;;0.65;;
71715;SDS011;59568;52.128;5.434;2024-03-23T11:04:55;4.33;;;0.87;;
71715;SDS011;59568;52.128;5.434;2024-03-23T11:09:58;6.35;;;0.70;;
71715;SDS011;59568;52.128;5.434;2024-03-23T11:12:25;2.92;;;0.45;;
71715;SDS011;59568;52.128;5.434;2024-03-23T11:14:52;3.27;;;0.50;;
71715;SDS011;59568;52.128;5.434;2024-03-23T11:17:19;6.63;;;0.82;;
71715;SDS011;59568;52.128;5.434;2024-03-23T11:19:58;2.08;;;0.40;;
71715;SDS011;59568;52.128;5.434;2024-03-23T11:27:49;5.20;;;0.80;;
71715;SDS011;59568;52.128;5.434;2024-03-23T11:30:20;5.60;;;1.45;;
71715;SDS011;59568;52.128;5.434;2024-03-23T11:32:54;7.82;;;0.75;;
71715;SDS011;59568;52.128;5.434;2024-03-23T11:35:32;6.20;;;1.05;;
71715;SDS011;59568;52.128;5.434;2024-03-23T11:38:09;6.20;;;0.80;;
71715;SDS011;59568;52.128;5.434;2024-03-23T11:40:40;3.27;;;0.37;;
71715;SDS011;59568;52.128;5.434;2024-03-23T11:43:17;4.10;;;0.70;;
71715;SDS011;59568;52.128;5.434;2024-03-23T11:45:44;5.35;;;0.80;;
71715;SDS011;59568;52.128;5.434;2024-03-23T11:48:14;6.22;;;0.70;;
71715;SDS011;59568;52.128;5.434;2024-03-23T11:50:44;4.75;;;0.77;;
71715;SDS011;59568;52.128;5.434;2024-03-23T11:55:44;3.85;;;0.52;;
71715;SDS011;59568;52.128;5.434;2024-03-23T11:58:12;5.10;;;1.13;;
71715;SDS011;59568;52.128;5.434;2024-03-23T12:00:38;3.92;;;0.52;;
71715;SDS011;59568;52.128;5.434;2024-03-23T12:03:05;4.55;;;0.60;;
71715;SDS011;59568;52.128;5.434;2024-03-23T12:05:31;7.30;;;1.02;;
71715;SDS011;59568;52.128;5.434;2024-03-23T12:10:43;7.53;;;1.03;;
71715;SDS011;59568;52.128;5.434;2024-03-23T12:13:10;3.42;;;0.95;;
71715;SDS011;59568;52.128;5.434;2024-03-23T12:15:36;4.10;;;0.60;;
71715;SDS011;59568;52.128;5.434;2024-03-23T12:18:09;4.50;;;0.57;;
71715;SDS011;59568;52.128;5.434;2024-03-23T12:20:38;7.20;;;1.33;;
71715;SDS011;59568;52.128;5.434;2024-03-23T12:23:08;5.10;;;0.90;;
71715;SDS011;59568;52.128;5.434;2024-03-23T12:25:35;5.97;;;1.00;;
71715;SDS011;59568;52.128;5.434;2024-03-23T12:28:01;4.25;;;1.00;;
71715;SDS011;59568;52.128;5.434;2024-03-23T12:30:28;8.00;;;1.23;;
71715;SDS011;59568;52.128;5.434;2024-03-23T12:32:53;6.25;;;0.60;;
71715;SDS011;59568;52.128;5.434;2024-03-23T12:35:19;7.72;;;0.90;;
71715;SDS011;59568;52.128;5.434;2024-03-23T12:37:45;5.07;;;0.73;;
71715;SDS011;59568;52.128;5.434;2024-03-23T12:40:11;3.58;;;0.77;;
71715;SDS011;59568;52.128;5.434;2024-03-23T12:42:36;7.83;;;1.50;;
71715;SDS011;59568;52.128;5.434;2024-03-23T12:45:03;2.78;;;0.80;;
71715;SDS011;59568;52.128;5.434;2024-03-23T12:47:32;7.00;;;0.93;;
71715;SDS011;59568;52.128;5.434;2024-03-23T12:49:58;5.53;;;0.60;;
71715;SDS011;59568;52.128;5.434;2024-03-23T12:52:23;4.40;;;1.17;;
71715;SDS011;59568;52.128;5.434;2024-03-23T12:54:54;2.85;;;0.45;;
71715;SDS011;59568;52.128;5.434;2024-03-23T12:57:27;5.75;;;0.50;;
71715;SDS011;59568;52.128;5.434;2024-03-23T12:59:54;3.13;;;0.47;;
71715;SDS011;59568;52.128;5.434;2024-03-23T13:02:21;7.03;;;0.82;;
71715;SDS011;59568;52.128;5.434;2024-03-23T13:04:50;4.35;;;0.70;;
71715;SDS011;59568;52.128;5.434;2024-03-23T13:07:17;5.43;;;0.60;;
71715;SDS011;59568;52.128;5.434;2024-03-23T13:09:44;8.30;;;0.77;;
71715;SDS011;59568;52.128;5.434;2024-03-23T13:12:10;5.97;;;0.70;;
71715;SDS011;59568;52.128;5.434;2024-03-23T13:14:39;6.47;;;0.70;;
71715;SDS011;59568;52.128;5.434;2024-03-23T13:17:04;5.88;;;0.57;;
71715;SDS011;59568;52.128;5.434;2024-03-23T13:19:31;10.00;;;0.73;;
71715;SDS011;59568;52.128;5.434;2024-03-23T13:21:57;5.30;;;1.20;;
71715;SDS011;59568;52.128;5.434;2024-03-23T13:24:24;5.27;;;0.43;;
71715;SDS011;59568;52.128;5.434;2024-03-23T13:26:50;7.82;;;0.93;;
71715;SDS011;59568;52.128;5.434;2024-03-23T13:29:20;2.92;;;0.30;;
71715;SDS011;59568;52.128;5.434;2024-03-23T13:31:46;1.92;;;0.30;;
71715;SDS011;59568;52.128;5.434;2024-03-23T13:34:12;1.27;;;0.50;;
71715;SDS011;59568;52.128;5.434;2024-03-23T13:36:43;0.77;;;0.27;;
71715;SDS011;59568;52.128;5.434;2024-03-23T13:39:10;1.80;;;0.30;;
71715;SDS011;59568;52.128;5.434;2024-03-23T13:41:40;1.38;;;0.40;;
71715;SDS011;59568;52.128;5.434;2024-03-23T13:44:07;1.25;;;0.30;;
71715;SDS011;59568;52.128;5.434;2024-03-23T13:46:35;1.75;;;0.22;;
71715;SDS011;59568;52.128;5.434;2024-03-23T13:49:01;4.73;;;0.30;;
71715;SDS011;59568;52.128;5.434;2024-03-23T13:51:27;5.32;;;0.57;;
71715;SDS011;59568;52.128;5.434;2024-03-23T13:53:55;2.72;;;0.52;;
71715;SDS011;59568;52.128;5.434;2024-03-23T13:56:22;6.03;;;0.40;;
71715;SDS011;59568;52.128;5.434;2024-03-23T13:58:48;3.30;;;0.50;;
71715;SDS011;59568;52.128;5.434;2024-03-23T14:01:14;3.73;;;0.60;;
71715;SDS011;59568;52.128;5.434;2024-03-23T14:03:41;4.03;;;0.40;;
71715;SDS011;59568;52.128;5.434;2024-03-23T14:06:08;4.95;;;0.57;;
71715;SDS011;59568;52.128;5.434;2024-03-23T14:08:36;3.55;;;0.60;;
71715;SDS011;59568;52.128;5.434;2024-03-23T14:11:05;4.07;;;0.50;;
71715;SDS011;59568;52.128;5.434;2024-03-23T14:13:31;2.33;;;0.52;;
71715;SDS011;59568;52.128;5.434;2024-03-23T14:15:58;3.67;;;0.50;;
71715;SDS011;59568;52.128;5.434;2024-03-23T14:18:24;5.35;;;0.60;;
71715;SDS011;59568;52.128;5.434;2024-03-23T14:20:51;5.78;;;0.60;;
71715;SDS011;59568;52.128;5.434;2024-03-23T14:23:18;3.53;;;0.37;;
71715;SDS011;59568;52.128;5.434;2024-03-23T14:25:44;5.25;;;0.40;;
71715;SDS011;59568;52.128;5.434;2024-03-23T14:28:10;7.88;;;0.80;;
71715;SDS011;59568;52.128;5.434;2024-03-23T14:30:41;6.80;;;0.52;;
71715;SDS011;59568;52.128;5.434;2024-03-23T14:33:07;3.63;;;0.50;;
71715;SDS011;59568;52.128;5.434;2024-03-23T14:35:33;2.67;;;0.47;;
71715;SDS011;59568;52.128;5.434;2024-03-23T14:37:59;5.03;;;0.55;;
71715;SDS011;59568;52.128;5.434;2024-03-23T14:40:24;4.80;;;0.73;;
71715;SDS011;59568;52.128;5.434;2024-03-23T14:42:56;5.38;;;0.60;;
71715;SDS011;59568;52.128;5.434;2024-03-23T14:45:22;9.02;;;0.60;;
71715;SDS011;59568;52.128;5.434;2024-03-23T14:47:50;2.77;;;0.37;;
71715;SDS011;59568;52.128;5.434;2024-03-23T14:50:17;3.15;;;0.55;;
71715;SDS011;59568;52.128;5.434;2024-03-23T14:52:44;5.57;;;0.70;;
71715;SDS011;59568;52.128;5.434;2024-03-23T14:55:13;5.60;;;0.80;;
71715;SDS011;59568;52.128;5.434;2024-03-23T14:57:39;2.92;;;0.60;;
71715;SDS011;59568;52.128;5.434;2024-03-23T15:00:06;4.30;;;0.70;;
71715;SDS011;59568;52.128;5.434;2024-03-23T15:02:38;3.72;;;0.40;;
71715;SDS011;59568;52.128;5.434;2024-03-23T15:05:05;3.63;;;0.40;;
71715;SDS011;59568;52.128;5.434;2024-03-23T15:07:36;4.10;;;0.50;;
71715;SDS011;59568;52.128;5.434;2024-03-23T15:10:07;2.63;;;0.30;;
71715;SDS011;59568;52.128;5.434;2024-03-23T15:12:33;4.80;;;0.50;;
71715;SDS011;59568;52.128;5.434;2024-03-23T15:14:59;3.80;;;0.70;;
71715;SDS011;59568;52.128;5.434;2024-03-23T15:17:25;6.85;;;0.60;;
71715;SDS011;59568;52.128;5.434;2024-03-23T15:19:52;4.43;;;0.40;;
71715;SDS011;59568;52.128;5.434;2024-03-23T15:22:19;4.00;;;0.43;;
71715;SDS011;59568;52.128;5.434;2024-03-23T15:24:46;3.92;;;0.40;;
71715;SDS011;59568;52.128;5.434;2024-03-23T15:27:13;2.08;;;0.52;;
71715;SDS011;59568;52.128;5.434;2024-03-23T15:29:38;4.38;;;0.63;;
71715;SDS011;59568;52.128;5.434;2024-03-23T15:32:04;3.03;;;0.50;;
71715;SDS011;59568;52.128;5.434;2024-03-23T15:34:30;3.22;;;0.70;;
71715;SDS011;59568;52.128;5.434;2024-03-23T15:36:55;2.77;;;0.33;;
71715;SDS011;59568;52.128;5.434;2024-03-23T15:39:21;3.30;;;0.77;;
71715;SDS011;59568;52.128;5.434;2024-03-23T15:41:48;4.35;;;0.82;;
71715;SDS011;59568;52.128;5.434;2024-03-23T15:44:14;3.55;;;0.50;;
71715;SDS011;59568;52.128;5.434;2024-03-23T15:46:39;3.37;;;0.57;;
71715;SDS011;59568;52.128;5.434;2024-03-23T15:49:06;3.42;;;0.70;;
71715;SDS011;59568;52.128;5.434;2024-03-23T15:51:31;3.30;;;0.98;;
71715;SDS011;59568;52.128;5.434;2024-03-23T15:54:04;5.15;;;0.60;;
71715;SDS011;59568;52.128;5.434;2024-03-23T15:56:30;6.37;;;0.90;;
71715;SDS011;59568;52.128;5.434;2024-03-23T15:58:56;5.40;;;0.57;;
71715;SDS011;59568;52.128;5.434;2024-03-23T16:01:31;3.38;;;0.50;;
71715;SDS011;59568;52.128;5.434;2024-03-23T16:04:01;4.28;;;0.70;;
71715;SDS011;59568;52.128;5.434;2024-03-23T16:06:27;3.50;;;0.97;;
71715;SDS011;59568;52.128;5.434;2024-03-23T16:08:53;5.45;;;0.63;;
71715;SDS011;59568;52.128;5.434;2024-03-23T16:11:18;3.30;;;0.70;;
71715;SDS011;59568;52.128;5.434;2024-03-23T16:13:46;4.10;;;0.75;;
71715;SDS011;59568;52.128;5.434;2024-03-23T16:16:12;3.50;;;0.50;;
71715;SDS011;59568;52.128;5.434;2024-03-23T16:18:38;2.78;;;0.60;;
71715;SDS011;59568;52.128;5.434;2024-03-23T16:21:09;6.20;;;0.50;;
71715;SDS011;59568;52.128;5.434;2024-03-23T16:23:35;7.15;;;0.63;;
71715;SDS011;59568;52.128;5.434;2024-03-23T16:26:04;3.15;;;0.68;;